createdAt,value
2022-11-05T00:00:49.792Z,13.35
2022-11-05T00:03:35.326Z,14.55
2022-11-05T00:06:21.209Z,16.13
2022-11-05T00:09:06.688Z,14.23
2022-11-05T00:11:52.606Z,14.93
2022-11-05T00:14:37.915Z,14.80
2022-11-05T00:17:05.107Z,15.10
2022-11-05T00:19:31.944Z,14.73
2022-11-05T00:22:28.348Z,15.85
2022-11-05T00:25:13.941Z,15.05
2022-11-05T00:27:41.567Z,15.48
2022-11-05T00:30:09.693Z,14.85
2022-11-05T00:32:36.869Z,15.43
2022-11-05T00:35:04.778Z,15.02
2022-11-05T00:37:31.944Z,15.48
2022-11-05T00:39:58.787Z,15.13
2022-11-05T00:42:44.411Z,15.07
2022-11-05T00:45:11.440Z,15.20
2022-11-05T00:47:57.967Z,15.80
2022-11-05T00:50:25.577Z,14.57
2022-11-05T00:52:59.751Z,15.38
2022-11-05T00:55:28.497Z,15.15
2022-11-05T00:57:57.403Z,15.98
2022-11-05T01:00:27.437Z,15.05
2022-11-05T01:02:58.684Z,15.88
2022-11-05T01:05:25.591Z,14.60
2022-11-05T01:07:53.430Z,16.25
2022-11-05T01:10:21.159Z,14.88
2022-11-05T01:12:48.547Z,15.45
2022-11-05T01:15:16.842Z,16.13
2022-11-05T01:17:44.026Z,14.43
2022-11-05T01:20:11.561Z,14.65
2022-11-05T01:22:38.774Z,15.10
2022-11-05T01:25:07.491Z,15.80
2022-11-05T01:27:36.220Z,14.93
2022-11-05T01:30:04.540Z,15.60
2022-11-05T01:32:31.826Z,15.98
2022-11-05T01:34:58.758Z,15.05
2022-11-05T01:37:25.944Z,14.23
2022-11-05T01:39:52.836Z,15.52
2022-11-05T01:42:22.962Z,16.48
2022-11-05T01:45:00.556Z,14.52
2022-11-05T01:47:40.004Z,17.30
2022-11-05T01:50:32.049Z,15.50
2022-11-05T01:53:13.147Z,17.67
2022-11-05T01:55:45.937Z,15.27
2022-11-05T01:58:17.705Z,17.33
2022-11-05T02:00:44.945Z,16.10
2022-11-05T02:03:14.442Z,15.57
2022-11-05T02:05:42.036Z,16.73
2022-11-05T02:08:20.525Z,17.13
2022-11-05T02:10:48.562Z,16.17
2022-11-05T02:13:15.686Z,15.27
2022-11-05T02:15:56.542Z,16.48
2022-11-05T02:18:48.992Z,16.45
2022-11-05T02:21:34.786Z,16.27
2022-11-05T02:24:20.546Z,16.38
2022-11-05T02:26:53.208Z,16.70
2022-11-05T02:29:47.823Z,15.65
2022-11-05T02:32:36.424Z,16.63
2022-11-05T02:35:12.749Z,16.38
2022-11-05T02:37:44.206Z,17.13
2022-11-05T02:40:21.783Z,15.68
2022-11-05T02:43:15.042Z,15.63
2022-11-05T02:46:00.211Z,15.25
2022-11-05T02:48:50.733Z,15.13
2022-11-05T02:51:22.179Z,15.23
2022-11-05T02:54:00.404Z,16.23
2022-11-05T02:56:32.514Z,16.00
2022-11-05T02:58:59.576Z,17.30
2022-11-05T03:01:26.867Z,16.10
2022-11-05T03:04:01.691Z,15.60
2022-11-05T03:06:47.661Z,16.35
2022-11-05T03:09:44.583Z,17.02
2022-11-05T03:12:11.657Z,15.45
2022-11-05T03:14:48.603Z,15.98
2022-11-05T03:17:45.051Z,16.38
2022-11-05T03:20:19.170Z,17.38
2022-11-05T03:23:07.356Z,17.92
2022-11-05T03:25:39.334Z,17.27
2022-11-05T03:28:08.695Z,20.27
2022-11-05T03:30:37.737Z,17.65
2022-11-05T03:33:11.166Z,18.00
2022-11-05T03:35:45.176Z,18.42
2022-11-05T03:38:21.641Z,16.90
2022-11-05T03:40:51.860Z,18.33
2022-11-05T03:43:22.963Z,16.95
2022-11-05T03:45:59.114Z,17.73
2022-11-05T03:48:28.564Z,18.35
2022-11-05T03:51:24.764Z,17.95
2022-11-05T03:54:01.109Z,17.38
2022-11-05T03:56:36.780Z,17.27
2022-11-05T03:59:06.636Z,18.38
2022-11-05T04:01:33.821Z,17.35
2022-11-05T04:04:01.059Z,17.83
2022-11-05T04:06:46.614Z,17.30
2022-11-05T04:09:32.461Z,19.25
2022-11-05T04:12:17.879Z,18.00
2022-11-05T04:14:45.111Z,19.85
2022-11-05T04:17:12.347Z,19.98
2022-11-05T04:20:00.396Z,17.95
2022-11-05T04:22:49.287Z,18.30
2022-11-05T04:25:18.236Z,17.15
2022-11-05T04:27:46.015Z,17.92
2022-11-05T04:30:21.785Z,17.65
2022-11-05T04:33:16.148Z,17.58
2022-11-05T04:35:47.839Z,17.85
2022-11-05T04:38:19.586Z,17.92
2022-11-05T04:40:48.185Z,21.25
2022-11-05T04:43:19.478Z,21.27
2022-11-05T04:45:47.117Z,21.55
2022-11-05T04:48:14.016Z,22.08
2022-11-05T04:50:41.470Z,20.38
2022-11-05T04:53:08.520Z,21.27
2022-11-05T04:55:35.948Z,24.70
2022-11-05T04:58:02.830Z,23.85
2022-11-05T05:00:30.049Z,23.80
2022-11-05T05:02:57.100Z,23.58
2022-11-05T05:05:24.284Z,22.08
2022-11-05T05:07:51.184Z,25.38
2022-11-05T05:10:18.415Z,23.67
2022-11-05T05:12:45.362Z,23.13
2022-11-05T05:15:12.486Z,22.98
2022-11-05T05:17:39.383Z,22.85
2022-11-05T05:20:25.573Z,21.42
2022-11-05T05:22:54.220Z,20.73
2022-11-05T05:25:22.300Z,20.83
2022-11-05T05:27:49.161Z,20.35
2022-11-05T05:30:16.532Z,20.83
2022-11-05T05:32:43.434Z,22.58
2022-11-05T05:35:10.633Z,19.08
2022-11-05T05:37:37.544Z,19.63
2022-11-05T05:40:05.123Z,18.33
2022-11-05T05:42:32.604Z,19.10
2022-11-05T05:44:59.785Z,20.42
2022-11-05T05:47:26.702Z,19.77
2022-11-05T05:49:53.824Z,19.45
2022-11-05T05:52:20.706Z,17.55
2022-11-05T05:54:47.893Z,18.92
2022-11-05T05:57:14.727Z,17.92
2022-11-05T05:59:41.901Z,17.55
2022-11-05T06:02:08.964Z,17.75
2022-11-05T06:04:36.452Z,16.80
2022-11-05T06:07:03.353Z,15.70
2022-11-05T06:09:30.541Z,15.80
2022-11-05T06:11:57.387Z,16.67
2022-11-05T06:14:24.946Z,12.55
2022-11-05T06:16:51.889Z,14.25
2022-11-05T06:19:19.287Z,14.18
2022-11-05T06:21:46.199Z,14.52
2022-11-05T06:24:13.450Z,12.13
2022-11-05T06:26:43.183Z,13.65
2022-11-05T06:29:10.739Z,12.45
2022-11-05T06:31:37.647Z,13.52
2022-11-05T06:34:04.887Z,12.85
2022-11-05T06:36:31.790Z,12.68
2022-11-05T06:38:58.975Z,12.35
2022-11-05T06:41:25.852Z,11.85
2022-11-05T06:43:53.042Z,12.18
2022-11-05T06:46:19.977Z,12.45
2022-11-05T06:48:47.479Z,13.95
2022-11-05T06:51:14.459Z,12.40
2022-11-05T06:53:41.876Z,13.10
2022-11-05T06:56:08.837Z,12.13
2022-11-05T06:58:36.671Z,13.82
2022-11-05T07:01:08.949Z,14.38
2022-11-05T07:03:37.817Z,13.40
2022-11-05T07:06:06.705Z,14.93
2022-11-05T07:08:35.320Z,14.13
2022-11-05T07:11:02.363Z,15.10
2022-11-05T07:13:29.836Z,19.35
2022-11-05T07:15:56.874Z,18.17
2022-11-05T07:18:24.048Z,17.35
2022-11-05T07:20:50.972Z,16.92
2022-11-05T07:23:18.323Z,18.33
2022-11-05T07:25:45.346Z,18.42
2022-11-05T07:28:14.514Z,18.23
2022-11-05T07:30:41.580Z,17.55
2022-11-05T07:33:09.565Z,16.75
2022-11-05T07:35:36.883Z,18.30
2022-11-05T07:38:04.225Z,19.65
2022-11-05T07:40:31.219Z,18.67
2022-11-05T07:43:00.694Z,16.95
2022-11-05T07:45:29.574Z,16.77
2022-11-05T07:48:01.817Z,16.60
2022-11-05T07:50:33.575Z,17.70
2022-11-05T07:53:03.036Z,16.13
2022-11-05T07:55:30.391Z,17.50
2022-11-05T07:57:57.701Z,17.85
2022-11-05T08:00:25.666Z,16.13
2022-11-05T08:03:06.843Z,17.80
2022-11-05T08:05:36.990Z,16.98
2022-11-05T08:08:06.164Z,15.00
2022-11-05T08:10:34.221Z,16.75
2022-11-05T08:13:01.761Z,16.55
2022-11-05T08:15:29.160Z,15.45
2022-11-05T08:18:17.235Z,13.70
2022-11-05T08:20:45.256Z,13.77
2022-11-05T08:23:12.864Z,16.10
2022-11-05T08:25:40.660Z,15.40
2022-11-05T08:28:11.246Z,15.52
2022-11-05T08:30:38.311Z,13.95
2022-11-05T08:33:13.229Z,14.77
2022-11-05T08:35:40.849Z,15.82
2022-11-05T08:38:13.642Z,14.80
2022-11-05T08:40:42.036Z,15.63
2022-11-05T08:43:11.802Z,13.50
2022-11-05T08:45:39.566Z,14.80
2022-11-05T08:48:12.537Z,13.00
2022-11-05T08:50:39.804Z,13.38
2022-11-05T08:53:08.226Z,13.73
2022-11-05T08:55:35.893Z,14.90
2022-11-05T08:58:10.718Z,14.98
2022-11-05T09:00:38.457Z,14.13
2022-11-05T09:03:07.558Z,13.07
2022-11-05T09:05:37.948Z,12.80
2022-11-05T09:08:10.034Z,12.68
2022-11-05T09:10:37.685Z,12.45
2022-11-05T09:13:05.280Z,11.77
2022-11-05T09:15:33.391Z,13.38
2022-11-05T09:18:00.581Z,12.68
2022-11-05T09:20:27.953Z,12.57
2022-11-05T09:22:55.469Z,12.73
2022-11-05T09:25:22.414Z,12.13
2022-11-05T09:27:50.011Z,12.90
2022-11-05T09:30:16.921Z,14.80
2022-11-05T09:32:44.098Z,12.48
2022-11-05T09:35:11.007Z,12.40
2022-11-05T09:37:38.729Z,12.70
2022-11-05T09:40:06.603Z,12.40
2022-11-05T09:42:41.285Z,12.23
2022-11-05T09:45:17.207Z,16.02
2022-11-05T09:47:52.235Z,13.23
2022-11-05T09:50:30.681Z,11.10
2022-11-05T09:52:58.478Z,11.38
2022-11-05T09:55:36.683Z,10.35
2022-11-05T09:58:28.870Z,10.23
2022-11-05T10:00:58.170Z,9.90
2022-11-05T10:03:28.751Z,10.00
2022-11-05T10:06:03.529Z,8.80
2022-11-05T10:08:36.814Z,7.68
2022-11-05T10:11:41.489Z,8.63
2022-11-05T10:14:21.506Z,7.65
2022-11-05T10:16:54.625Z,9.10
2022-11-05T10:19:25.640Z,9.20
2022-11-05T10:22:11.098Z,8.32
2022-11-05T10:24:41.974Z,7.65
2022-11-05T10:27:15.240Z,8.98
2022-11-05T10:29:43.462Z,8.95
2022-11-05T10:32:18.078Z,9.07
2022-11-05T10:34:45.596Z,10.85
2022-11-05T10:37:12.502Z,10.80
2022-11-05T10:39:40.007Z,11.10
2022-11-05T10:42:11.578Z,11.45
2022-11-05T10:44:54.780Z,11.15
2022-11-05T10:47:45.876Z,12.02
2022-11-05T10:50:18.365Z,11.30
2022-11-05T10:53:07.911Z,10.20
2022-11-05T10:55:37.889Z,9.82
2022-11-05T10:58:13.761Z,9.73
2022-11-05T11:00:42.953Z,10.80
2022-11-05T11:03:37.554Z,9.80
2022-11-05T11:06:13.396Z,10.23
2022-11-05T11:08:44.866Z,11.25
2022-11-05T11:11:24.765Z,8.45
2022-11-05T11:13:57.380Z,8.63
2022-11-05T11:16:26.866Z,7.70
2022-11-05T11:18:56.436Z,9.02
2022-11-05T11:21:24.274Z,7.40
2022-11-05T11:24:04.890Z,6.93
2022-11-05T11:26:36.018Z,7.35
2022-11-05T11:29:18.937Z,8.20
2022-11-05T11:31:46.644Z,8.13
2022-11-05T11:34:31.791Z,6.88
2022-11-05T11:37:07.612Z,6.55
2022-11-05T11:39:36.589Z,5.85
2022-11-05T11:42:11.877Z,4.65
2022-11-05T11:44:44.663Z,4.15
2022-11-05T11:49:55.856Z,3.75
2022-11-05T11:52:34.485Z,4.68
2022-11-05T11:55:19.496Z,3.40
2022-11-05T11:57:52.727Z,3.45
2022-11-05T12:03:06.663Z,3.72
2022-11-05T12:05:54.866Z,4.45
2022-11-05T12:08:45.792Z,3.70
2022-11-05T12:11:52.413Z,4.47
2022-11-05T12:14:56.181Z,5.35
2022-11-05T12:17:26.401Z,4.75
2022-11-05T12:20:19.305Z,5.00
2022-11-05T12:23:13.465Z,5.05
2022-11-05T12:26:19.474Z,6.47
2022-11-05T12:29:20.157Z,5.65
2022-11-05T12:32:23.665Z,5.57
2022-11-05T12:35:21.754Z,4.50
2022-11-05T12:38:04.031Z,4.78
2022-11-05T12:40:48.908Z,3.78
2022-11-05T12:43:21.833Z,4.40
2022-11-05T12:46:23.359Z,3.65
2022-11-05T12:49:11.930Z,5.03
2022-11-05T12:51:52.114Z,2.58
2022-11-05T12:54:44.215Z,3.55
2022-11-05T12:57:14.771Z,3.70
2022-11-05T13:00:17.539Z,3.00
2022-11-05T13:03:19.154Z,2.92
2022-11-05T13:06:05.622Z,2.92
2022-11-05T13:08:55.159Z,2.47
2022-11-05T13:11:33.326Z,3.03
2022-11-05T13:14:20.033Z,3.78
2022-11-05T13:16:54.476Z,3.33
2022-11-05T13:19:33.286Z,2.95
2022-11-05T13:22:09.699Z,3.42
2022-11-05T13:24:47.986Z,3.88
2022-11-05T13:27:47.901Z,2.60
2022-11-05T13:30:33.015Z,4.68
2022-11-05T13:33:05.893Z,5.40
2022-11-05T13:35:41.523Z,5.55
2022-11-05T13:38:37.009Z,3.83
2022-11-05T13:41:28.463Z,4.05
2022-11-05T13:44:19.991Z,3.78
2022-11-05T13:47:10.156Z,4.00
2022-11-05T13:50:08.304Z,4.13
2022-11-05T13:52:41.321Z,4.43
2022-11-05T13:55:40.075Z,4.97
2022-11-05T13:58:34.588Z,3.95
2022-11-05T14:01:15.427Z,4.18
2022-11-05T14:03:48.572Z,5.10
2022-11-05T14:06:30.998Z,4.45
2022-11-05T14:09:04.456Z,4.50
2022-11-05T14:11:44.187Z,4.28
2022-11-05T14:14:19.689Z,5.10
2022-11-05T14:17:14.146Z,5.18
2022-11-05T14:20:01.667Z,5.18
2022-11-05T14:22:32.096Z,8.90
2022-11-05T14:25:18.287Z,12.10
2022-11-05T14:27:48.121Z,6.63
2022-11-05T14:30:46.669Z,5.43
2022-11-05T14:33:15.124Z,6.43
2022-11-05T14:35:42.093Z,5.13
2022-11-05T14:38:22.187Z,6.15
2022-11-05T14:40:49.771Z,6.88
2022-11-05T14:43:21.667Z,5.93
2022-11-05T14:45:53.656Z,6.60
2022-11-05T14:48:43.403Z,6.27
2022-11-05T14:51:35.452Z,7.38
2022-11-05T14:54:18.348Z,5.25
2022-11-05T14:56:56.331Z,8.63
2022-11-05T14:59:24.315Z,6.47
2022-11-05T15:02:12.033Z,9.77
2022-11-05T15:04:45.832Z,11.27
2022-11-05T15:07:22.725Z,10.05
2022-11-05T15:09:53.237Z,14.82
2022-11-05T15:12:34.602Z,9.43
2022-11-05T15:15:21.413Z,7.93
2022-11-05T15:18:29.478Z,6.13
2022-11-05T15:21:00.734Z,4.22
2022-11-05T15:23:39.090Z,5.47
2022-11-05T15:26:14.733Z,6.05
2022-11-05T15:28:51.669Z,6.00
2022-11-05T15:31:45.293Z,4.13
2022-11-05T15:34:23.646Z,4.68
2022-11-05T15:37:20.889Z,6.65
2022-11-05T15:39:50.118Z,4.63
2022-11-05T15:42:22.223Z,4.70
2022-11-05T15:44:59.781Z,4.43
2022-11-05T15:47:31.275Z,6.05
2022-11-05T15:50:01.286Z,7.40
2022-11-05T15:52:36.271Z,6.95
2022-11-05T15:55:14.541Z,5.20
2022-11-05T15:57:51.067Z,4.15
2022-11-05T16:00:22.856Z,4.40
2022-11-05T16:02:55.143Z,3.28
2022-11-05T16:05:24.016Z,3.38
2022-11-05T16:07:51.711Z,4.20
2022-11-05T16:10:29.875Z,3.35
2022-11-05T16:12:57.231Z,3.65
2022-11-05T16:15:29.487Z,3.72
2022-11-05T16:18:00.599Z,6.05
2022-11-05T16:20:34.761Z,13.02
2022-11-05T16:23:05.119Z,8.45
2022-11-05T16:25:43.130Z,4.68
2022-11-05T16:28:19.333Z,4.57
2022-11-05T16:30:56.382Z,5.05
2022-11-05T16:33:27.778Z,4.28
2022-11-05T16:35:54.731Z,5.22
2022-11-05T16:38:22.341Z,4.75
2022-11-05T16:40:49.276Z,4.15
2022-11-05T16:43:26.475Z,6.40
2022-11-05T16:45:57.154Z,5.20
2022-11-05T16:48:26.060Z,6.05
2022-11-05T16:50:53.812Z,6.75
2022-11-05T16:53:21.302Z,6.30
2022-11-05T16:55:48.387Z,5.95
2022-11-05T16:58:19.556Z,7.32
2022-11-05T17:00:47.258Z,5.97
2022-11-05T17:03:14.939Z,6.32
2022-11-05T17:05:41.981Z,6.95
2022-11-05T17:08:09.701Z,7.28
2022-11-05T17:10:36.914Z,6.43
2022-11-05T17:13:04.304Z,6.65
2022-11-05T17:15:35.667Z,6.90
2022-11-05T17:18:04.785Z,7.47
2022-11-05T17:20:51.128Z,8.18
2022-11-05T17:23:20.792Z,9.55
2022-11-05T17:26:01.676Z,8.38
2022-11-05T17:28:29.211Z,7.82
2022-11-05T17:30:59.991Z,8.90
2022-11-05T17:33:27.572Z,7.40
2022-11-05T17:35:54.954Z,9.10
2022-11-05T17:38:24.240Z,7.78
2022-11-05T17:40:51.569Z,7.82
2022-11-05T17:43:20.225Z,7.25
2022-11-05T17:45:51.976Z,8.10
2022-11-05T17:48:21.699Z,8.40
2022-11-05T17:50:50.015Z,7.20
2022-11-05T17:53:18.945Z,8.25
2022-11-05T17:55:47.630Z,7.65
2022-11-05T17:58:15.636Z,7.90
2022-11-05T18:00:43.883Z,8.38
2022-11-05T18:03:12.786Z,8.25
2022-11-05T18:05:40.533Z,9.13
2022-11-05T18:08:08.382Z,9.65
2022-11-05T18:10:39.417Z,10.02
2022-11-05T18:13:07.069Z,7.55
2022-11-05T18:15:35.529Z,7.90
2022-11-05T18:18:02.878Z,7.68
2022-11-05T18:20:30.275Z,7.55
2022-11-05T18:22:57.661Z,10.98
2022-11-05T18:25:24.675Z,10.95
2022-11-05T18:27:51.843Z,11.13
2022-11-05T18:30:18.892Z,16.50
2022-11-05T18:32:46.261Z,13.95
2022-11-05T18:35:14.519Z,12.45
2022-11-05T18:37:42.377Z,9.02
2022-11-05T18:40:10.408Z,10.15
2022-11-05T18:42:37.966Z,9.07
2022-11-05T18:45:06.735Z,8.60
2022-11-05T18:47:34.263Z,8.43
2022-11-05T18:50:01.833Z,9.02
2022-11-05T18:52:31.571Z,7.97
2022-11-05T18:54:59.595Z,8.00
2022-11-05T18:57:28.167Z,9.68
2022-11-05T18:59:55.016Z,9.55
2022-11-05T19:02:22.470Z,9.73
2022-11-05T19:05:07.040Z,13.02
2022-11-05T19:07:38.321Z,9.45
2022-11-05T19:10:07.160Z,12.52
2022-11-05T19:12:34.334Z,9.57
2022-11-05T19:15:03.007Z,9.93
2022-11-05T19:17:32.447Z,9.48
2022-11-05T19:19:59.406Z,8.40
2022-11-05T19:22:27.137Z,9.15
2022-11-05T19:24:54.119Z,8.48
2022-11-05T19:27:21.320Z,8.57
2022-11-05T19:29:48.213Z,7.63
2022-11-05T19:32:15.657Z,8.18
2022-11-05T19:34:42.544Z,9.18
2022-11-05T19:37:10.052Z,9.18
2022-11-05T19:39:37.018Z,8.18
2022-11-05T19:42:04.799Z,8.57
2022-11-05T19:44:31.898Z,9.80
2022-11-05T19:46:59.498Z,9.35
2022-11-05T19:49:28.209Z,10.10
2022-11-05T19:51:56.226Z,10.00
2022-11-05T19:54:23.251Z,8.98
2022-11-05T19:56:51.854Z,9.45
2022-11-05T19:59:18.876Z,8.45
2022-11-05T20:01:46.458Z,7.78
2022-11-05T20:04:13.650Z,7.80
2022-11-05T20:06:41.143Z,7.30
2022-11-05T20:09:22.488Z,7.72
2022-11-05T20:11:56.172Z,6.63
2022-11-05T20:14:24.697Z,8.52
2022-11-05T20:16:52.444Z,7.38
2022-11-05T20:19:21.188Z,8.02
2022-11-05T20:21:48.777Z,7.68
2022-11-05T20:24:23.651Z,7.18
2022-11-05T20:26:51.414Z,9.90
2022-11-05T20:29:18.392Z,9.13
2022-11-05T20:31:45.529Z,7.82
2022-11-05T20:34:14.049Z,9.38
2022-11-05T20:36:41.490Z,8.80
2022-11-05T20:39:09.533Z,7.75
2022-11-05T20:41:36.686Z,8.45
2022-11-05T20:44:04.829Z,8.43
2022-11-05T20:46:32.920Z,8.55
2022-11-05T20:48:59.821Z,7.47
2022-11-05T20:51:27.052Z,7.75
2022-11-05T20:53:58.268Z,7.25
2022-11-05T20:56:30.632Z,7.72
2022-11-05T20:58:59.339Z,6.50
2022-11-05T21:01:28.361Z,12.00
2022-11-05T21:03:55.823Z,17.42
2022-11-05T21:06:23.648Z,14.55
2022-11-05T21:08:51.552Z,12.18
2022-11-05T21:11:19.895Z,6.88
2022-11-05T21:13:46.982Z,7.95
2022-11-05T21:16:18.172Z,7.93
2022-11-05T21:18:46.318Z,6.50
2022-11-05T21:21:19.482Z,7.32
2022-11-05T21:23:46.806Z,6.40
2022-11-05T21:26:16.788Z,6.82
2022-11-05T21:28:43.962Z,6.65
2022-11-05T21:31:11.718Z,6.03
2022-11-05T21:33:38.694Z,6.30
2022-11-05T21:36:09.749Z,6.80
2022-11-05T21:38:37.000Z,5.75
2022-11-05T21:41:05.098Z,6.35
2022-11-05T21:43:32.105Z,6.95
2022-11-05T21:46:04.097Z,6.72
2022-11-05T21:48:31.765Z,6.40
2022-11-05T21:51:17.826Z,7.05
2022-11-05T21:54:03.212Z,7.85
2022-11-05T21:56:49.680Z,6.03
2022-11-05T21:59:37.569Z,6.13
2022-11-05T22:02:05.801Z,5.57
2022-11-05T22:04:38.593Z,6.80
2022-11-05T22:07:07.687Z,6.30
2022-11-05T22:09:35.117Z,7.22
2022-11-05T22:12:02.924Z,6.13
2022-11-05T22:14:30.455Z,6.20
2022-11-05T22:16:58.198Z,7.78
2022-11-05T22:19:25.574Z,7.40
2022-11-05T22:21:53.377Z,7.97
2022-11-05T22:24:20.435Z,7.05
2022-11-05T22:26:48.114Z,7.80
2022-11-05T22:29:15.637Z,7.90
2022-11-05T22:31:42.876Z,8.05
2022-11-05T22:34:10.613Z,7.22
2022-11-05T22:36:38.086Z,6.93
2022-11-05T22:39:06.179Z,6.93
2022-11-05T22:41:33.681Z,7.07
2022-11-05T22:44:00.712Z,6.50
2022-11-05T22:46:27.867Z,8.75
2022-11-05T22:48:56.191Z,6.97
2022-11-05T22:51:26.678Z,7.78
2022-11-05T22:53:57.285Z,7.55
2022-11-05T22:56:26.772Z,7.10
2022-11-05T22:58:53.895Z,9.40
2022-11-05T23:01:22.690Z,7.70
2022-11-05T23:03:52.044Z,8.00
2022-11-05T23:06:40.214Z,7.10
2022-11-05T23:09:50.338Z,7.60
2022-11-05T23:12:30.850Z,7.88
2022-11-05T23:14:59.949Z,7.70
2022-11-05T23:17:46.602Z,8.82
2022-11-05T23:20:38.355Z,8.57
2022-11-05T23:23:48.656Z,7.43
2022-11-05T23:26:34.036Z,7.82
2022-11-05T23:29:01.232Z,8.52
2022-11-05T23:31:46.991Z,7.35
2022-11-05T23:34:14.159Z,8.35
2022-11-05T23:36:59.909Z,7.00
2022-11-05T23:39:27.053Z,7.55
2022-11-05T23:42:12.790Z,7.32
2022-11-05T23:44:58.707Z,7.03
2022-11-05T23:47:44.117Z,7.82
2022-11-05T23:50:11.305Z,7.75
2022-11-05T23:52:38.137Z,8.10
2022-11-05T23:55:05.611Z,7.50
2022-11-05T23:57:32.613Z,6.95
2022-11-05T23:59:59.744Z,8.20
